Time;durP1;ratioP1;P1;durP2;ratioP2;P2;SDS_P1;SDS_P2;PMS_P1;PMS_P2;Temp;Humidity;BMP_temperature;BMP_pressure;BME280_temperature;BME280_humidity;BME280_pressure;Samples;Min_cycle;Max_cycle;Signal;HPM_P1;HPM_P2
2022/06/17 00:00:44;;;;;;;10.65;7.05;;;16.20;99.90;;;;;;5089674;28;20111;-77
2022/06/17 00:03:09;;;;;;;8.10;6.70;;;16.20;99.90;;;;;;5090049;28;20090;-76
2022/06/17 00:05:35;;;;;;;9.20;7.10;;;16.20;99.90;;;;;;5077718;28;20028;-76
2022/06/17 00:08:01;;;;;;;7.82;6.32;;;16.20;99.90;;;;;;5092388;28;20093;-78
2022/06/17 00:10:26;;;;;;;7.40;6.30;;;16.30;99.90;;;;;;5090339;28;20036;-76
2022/06/17 00:12:53;;;;;;;10.30;6.57;;;16.30;99.90;;;;;;5090931;28;20032;-77
2022/06/17 00:15:19;;;;;;;12.25;6.78;;;16.30;99.90;;;;;;5089633;28;20044;-77
2022/06/17 00:17:55;;;;;;;;;;;16.30;99.90;;;;;;5089999;28;20129;-76
2022/06/17 00:20:23;;;;;;;9.20;7.38;;;16.30;99.90;;;;;;5090234;28;20345;-78
2022/06/17 00:22:50;;;;;;;8.38;7.10;;;16.20;99.90;;;;;;5089551;28;20047;-77
2022/06/17 00:25:15;;;;;;;;;;;16.20;99.90;;;;;;5087686;28;20044;-77
2022/06/17 00:27:41;;;;;;;10.95;7.90;;;16.20;99.90;;;;;;5089315;28;19947;-76
2022/06/17 00:30:19;;;;;;;10.27;7.30;;;16.30;99.90;;;;;;5089721;28;20408;-77
2022/06/17 00:32:45;;;;;;;9.30;6.88;;;16.20;99.90;;;;;;5088889;28;20028;-78
2022/06/17 00:35:12;;;;;;;8.82;7.57;;;16.20;99.90;;;;;;5089718;28;20042;-77
2022/06/17 00:37:41;;;;;;;9.95;7.38;;;16.30;99.90;;;;;;5089432;28;20048;-78
2022/06/17 00:40:20;;;;;;;9.27;7.72;;;16.30;99.90;;;;;;5056679;28;20539;-76
2022/06/17 00:42:47;;;;;;;8.77;7.80;;;16.30;99.90;;;;;;5089598;28;20059;-77
2022/06/17 00:45:26;;;;;;;9.45;7.35;;;16.30;99.90;;;;;;5072617;28;20040;-76
2022/06/17 00:48:01;;;;;;;9.88;7.30;;;16.20;99.90;;;;;;5087481;28;20036;-78
2022/06/17 00:50:35;;;;;;;9.00;7.40;;;16.20;99.90;;;;;;5089439;28;20043;-77
2022/06/17 00:53:00;;;;;;;8.60;7.25;;;16.20;99.90;;;;;;5089122;28;20051;-78
2022/06/17 00:55:33;;;;;;;10.90;7.50;;;16.20;99.90;;;;;;5089642;28;20044;-77
2022/06/17 00:58:01;;;;;;;9.27;7.10;;;16.30;99.90;;;;;;5087265;28;20293;-77
2022/06/17 01:00:30;;;;;;;9.18;7.50;;;16.20;99.90;;;;;;5089181;28;20051;-77
2022/06/17 01:03:00;;;;;;;11.93;7.55;;;16.20;99.90;;;;;;5089203;28;20373;-78
2022/06/17 01:05:30;;;;;;;8.82;7.32;;;16.10;99.90;;;;;;5089358;28;20072;-78
2022/06/17 01:08:03;;;;;;;9.43;7.30;;;16.00;99.90;;;;;;5086698;28;20368;-77
2022/06/17 01:10:30;;;;;;;7.80;7.00;;;16.00;99.90;;;;;;5089581;28;20366;-78
2022/06/17 01:13:08;;;;;;;10.10;7.07;;;16.00;99.90;;;;;;5071023;28;20040;-77
2022/06/17 01:15:36;;;;;;;10.10;7.13;;;16.00;99.90;;;;;;5089088;28;20058;-77
2022/06/17 01:18:04;;;;;;;7.85;6.78;;;16.00;99.90;;;;;;5088620;28;20097;-77
2022/06/17 01:20:31;;;;;;;10.40;7.10;;;16.00;99.90;;;;;;5089530;28;20098;-78
2022/06/17 01:23:03;;;;;;;9.35;6.70;;;16.00;99.90;;;;;;5087661;28;20714;-78
2022/06/17 01:25:32;;;;;;;9.05;6.63;;;16.00;99.90;;;;;;5071958;28;20060;-77
2022/06/17 01:28:07;;;;;;;10.73;6.78;;;16.10;99.90;;;;;;5088549;28;20036;-77
2022/06/17 01:30:38;;;;;;;9.13;6.85;;;16.10;99.90;;;;;;5087767;28;20054;-77
2022/06/17 01:33:13;;;;;;;9.13;6.65;;;16.10;99.90;;;;;;5088367;28;20089;-78
2022/06/17 01:35:45;;;;;;;9.95;6.78;;;16.10;99.90;;;;;;5088981;28;20044;-77
2022/06/17 01:38:12;;;;;;;7.38;6.53;;;16.00;99.90;;;;;;5095024;28;20456;-78
2022/06/17 01:40:38;;;;;;;9.23;6.43;;;16.00;99.90;;;;;;5071360;28;20035;-78
2022/06/17 01:43:08;;;;;;;10.95;6.82;;;16.00;99.90;;;;;;5071849;28;20464;-77
2022/06/17 01:45:38;;;;;;;9.38;6.60;;;16.00;99.90;;;;;;5088902;28;20048;-77
2022/06/17 01:48:05;;;;;;;9.10;7.20;;;16.00;99.90;;;;;;5088639;28;20366;-77
2022/06/17 01:50:32;;;;;;;8.05;6.25;;;16.00;99.90;;;;;;5088795;28;20036;-77
2022/06/17 01:53:03;;;;;;;9.90;6.63;;;15.90;99.90;;;;;;5088194;28;20115;-76
2022/06/17 01:55:41;;;;;;;7.82;6.38;;;15.90;99.90;;;;;;5088000;28;20048;-77
2022/06/17 01:58:18;;;;;;;9.07;6.68;;;15.80;99.90;;;;;;5086199;28;20052;-78
2022/06/17 02:00:44;;;;;;;8.32;6.05;;;15.80;99.90;;;;;;5087607;28;20481;-77
2022/06/17 02:03:18;;;;;;;7.15;5.90;;;15.80;99.90;;;;;;5088208;28;20051;-78
2022/06/17 02:05:49;;;;;;;8.80;6.10;;;15.90;99.90;;;;;;5088605;28;20369;-77
2022/06/17 02:08:15;;;;;;;9.18;5.90;;;15.90;99.90;;;;;;5071618;28;20040;-78
2022/06/17 02:10:44;;;;;;;9.38;5.93;;;15.90;99.90;;;;;;5088664;28;20047;-78
2022/06/17 02:13:13;;;;;;;9.73;6.38;;;15.90;99.90;;;;;;5071544;28;20043;-77
2022/06/17 02:15:39;;;;;;;8.70;6.35;;;15.80;99.90;;;;;;5071540;28;20048;-78
2022/06/17 02:18:09;;;;;;;7.25;6.38;;;15.80;99.90;;;;;;5088439;28;20400;-77
2022/06/17 02:20:38;;;;;;;7.93;6.28;;;15.90;99.90;;;;;;5071638;28;20055;-78
2022/06/17 02:23:04;;;;;;;8.57;5.90;;;15.90;99.90;;;;;;5088440;28;20601;-77
2022/06/17 02:25:37;;;;;;;8.45;5.75;;;15.80;99.90;;;;;;5092487;28;20164;-78
2022/06/17 02:28:05;;;;;;;10.30;6.55;;;15.80;99.90;;;;;;5074771;28;20059;-77
2022/06/17 02:30:31;;;;;;;9.25;6.75;;;15.70;99.90;;;;;;5091625;28;20051;-77
2022/06/17 02:32:59;;;;;;;;;;;15.70;99.90;;;;;;5075347;28;20124;-76
2022/06/17 02:35:56;;;;;;;8.43;6.50;;;15.70;99.90;;;;;;5092040;28;20306;-78
2022/06/17 02:38:25;;;;;;;7.22;6.18;;;15.60;99.90;;;;;;5074778;28;20055;-77
2022/06/17 02:41:00;;;;;;;7.32;5.68;;;15.60;99.90;;;;;;5091609;28;20092;-77
2022/06/17 02:43:32;;;;;;;9.00;5.95;;;15.60;99.90;;;;;;5091918;28;20081;-78
2022/06/17 02:46:04;;;;;;;7.53;5.57;;;15.60;99.90;;;;;;5090768;28;20039;-78
2022/06/17 02:48:38;;;;;;;7.65;5.18;;;15.50;99.90;;;;;;5072773;28;20100;-77
2022/06/17 02:51:04;;;;;;;8.75;5.07;;;15.50;99.90;;;;;;5074489;28;20032;-77
2022/06/17 02:53:36;;;;;;;8.20;5.15;;;15.50;99.90;;;;;;5106609;28;20062;-78
2022/06/17 02:56:08;;;;;;;7.68;5.00;;;15.50;99.90;;;;;;5091201;28;20090;-77
2022/06/17 02:58:45;;;;;;;8.40;5.15;;;15.60;99.90;;;;;;5089766;28;20044;-77
2022/06/17 03:01:22;;;;;;;7.38;4.75;;;15.60;99.90;;;;;;5091100;28;20054;-78
2022/06/17 03:03:48;;;;;;;5.53;4.70;;;15.60;99.90;;;;;;5091119;28;20040;-77
2022/06/17 03:06:32;;;;;;;6.38;4.72;;;15.50;99.90;;;;;;5091115;28;20099;-78
2022/06/17 03:09:01;;;;;;;6.93;5.10;;;15.50;99.90;;;;;;5090853;28;20119;-78
2022/06/17 03:11:27;;;;;;;9.02;5.00;;;15.50;99.90;;;;;;5091331;28;20036;-77
2022/06/17 03:14:04;;;;;;;8.18;5.30;;;15.40;99.90;;;;;;5088927;28;20038;-77
2022/06/17 03:16:32;;;;;;;7.72;4.78;;;15.40;99.90;;;;;;5074649;28;20369;-77
2022/06/17 03:18:58;;;;;;;6.85;4.63;;;15.40;99.90;;;;;;5090094;28;20044;-77
2022/06/17 03:21:24;;;;;;;6.57;4.38;;;15.40;99.90;;;;;;5074187;28;20101;-77
2022/06/17 03:24:12;;;;;;;8.02;4.85;;;15.50;99.90;;;;;;5091055;28;20482;-77
2022/06/17 03:27:04;;;;;;;6.00;4.55;;;15.50;99.90;;;;;;5094391;28;20055;-76
2022/06/17 03:29:32;;;;;;;7.95;4.47;;;15.60;99.90;;;;;;5081706;28;20080;-77
2022/06/17 03:32:01;;;;;;;6.88;4.32;;;15.60;99.90;;;;;;5089456;28;20044;-77
2022/06/17 03:34:36;;;;;;;6.47;4.80;;;15.60;99.90;;;;;;5089800;28;20048;-78
2022/06/17 03:37:17;;;;;;;9.10;5.00;;;15.60;99.90;;;;;;5088670;28;20032;-77
2022/06/17 03:39:54;;;;;;;7.50;4.80;;;15.60;99.90;;;;;;5092147;28;20044;-77
2022/06/17 03:42:36;;;;;;;7.32;5.00;;;15.70;99.90;;;;;;5092136;28;20032;-77
2022/06/17 03:45:11;;;;;;;7.00;4.82;;;15.60;99.90;;;;;;5078277;28;20040;-77
2022/06/17 03:48:12;;;;;;;8.25;5.30;;;15.60;99.90;;;;;;5090640;28;20039;-78
2022/06/17 03:50:44;;;;;;;7.25;5.00;;;15.60;99.90;;;;;;5089410;28;20372;-78
2022/06/17 03:53:12;;;;;;;8.55;5.38;;;15.60;99.90;;;;;;5089070;28;22047;-78
2022/06/17 03:55:38;;;;;;;7.50;5.35;;;15.60;99.90;;;;;;5090873;28;20079;-78
2022/06/17 03:58:04;;;;;;;7.35;5.00;;;15.60;99.90;;;;;;5090407;28;20546;-78
2022/06/17 04:00:40;;;;;;;7.53;4.38;;;15.60;99.90;;;;;;5090254;28;20044;-78
2022/06/17 04:03:12;;;;;;;7.57;4.97;;;15.60;99.90;;;;;;5090257;28;20459;-78
2022/06/17 04:05:40;;;;;;;8.02;5.13;;;15.60;99.90;;;;;;5090633;28;20044;-78
2022/06/17 04:08:06;;;;;;;6.88;5.03;;;15.60;99.90;;;;;;5091139;28;20392;-77
2022/06/17 04:10:32;;;;;;;8.07;5.10;;;15.60;99.90;;;;;;5090082;28;20048;-78
2022/06/17 04:12:58;;;;;;;7.07;5.00;;;15.70;99.90;;;;;;5072905;28;20036;-77
2022/06/17 04:15:59;;;;;;;8.98;5.00;;;15.70;99.90;;;;;;5090460;28;20047;-77
2022/06/17 04:18:25;;;;;;;5.25;4.55;;;15.70;99.90;;;;;;5090391;28;20036;-77
2022/06/17 04:20:57;;;;;;;5.90;4.60;;;15.80;99.90;;;;;;5073341;28;20139;-78
2022/06/17 04:23:34;;;;;;;6.70;4.95;;;15.80;99.90;;;;;;5090047;28;20123;-77
2022/06/17 04:26:06;;;;;;;11.35;5.07;;;15.80;99.90;;;;;;5088719;28;20380;-77
2022/06/17 04:28:59;;;;;;;5.85;4.55;;;15.80;99.90;;;;;;5090389;28;20474;-79
2022/06/17 04:31:27;;;;;;;6.22;4.68;;;15.90;99.90;;;;;;5088513;28;20454;-76
2022/06/17 04:33:55;;;;;;;8.25;5.20;;;16.00;99.90;;;;;;5091208;28;20036;-77
2022/06/17 04:36:29;;;;;;;7.53;5.38;;;16.00;99.90;;;;;;5090012;28;20508;-77
2022/06/17 04:39:24;;;;;;;7.85;5.43;;;16.00;99.90;;;;;;5089927;28;20043;-75
2022/06/17 04:41:53;;;;;;;6.45;4.80;;;16.10;99.90;;;;;;5083956;28;20052;-77
2022/06/17 04:44:19;;;;;;;6.50;5.20;;;16.20;99.90;;;;;;5090051;28;20054;-78
2022/06/17 04:46:54;;;;;;;9.35;5.60;;;16.30;99.90;;;;;;5091314;28;20380;-77
2022/06/17 04:49:26;;;;;;;9.70;5.80;;;16.20;99.90;;;;;;5089572;28;20488;-77
2022/06/17 04:52:00;;;;;;;11.23;5.95;;;16.20;99.90;;;;;;5090085;28;20490;-78
2022/06/17 04:54:28;;;;;;;9.38;5.55;;;16.20;99.90;;;;;;5090023;28;20119;-79
2022/06/17 04:56:56;;;;;;;9.07;5.85;;;16.20;99.90;;;;;;5088461;28;20104;-79
2022/06/17 04:59:37;;;;;;;8.00;5.90;;;16.10;99.90;;;;;;5087827;28;20070;-79
2022/06/17 05:02:16;;;;;;;9.73;6.25;;;16.20;99.90;;;;;;5085999;28;20036;-78
2022/06/17 05:04:42;;;;;;;7.50;5.90;;;16.20;99.90;;;;;;5088951;28;20769;-77
2022/06/17 05:07:08;;;;;;;8.43;5.43;;;16.10;99.90;;;;;;5088351;28;20063;-77
2022/06/17 05:09:42;;;;;;;8.23;5.15;;;16.20;99.90;;;;;;5073063;28;20040;-78
2022/06/17 05:12:18;;;;;;;10.40;5.70;;;16.10;99.90;;;;;;5087325;28;20040;-78
2022/06/17 05:14:51;;;;;;;8.43;5.30;;;16.20;99.90;;;;;;5087810;28;20495;-78
2022/06/17 05:17:18;;;;;;;8.63;5.05;;;16.20;99.90;;;;;;5088934;28;20181;-79
2022/06/17 05:19:43;;;;;;;6.60;4.90;;;16.20;99.90;;;;;;5090320;28;20028;-78
2022/06/17 05:22:31;;;;;;;7.82;4.88;;;16.30;99.90;;;;;;5094115;28;20032;-78
2022/06/17 05:24:58;;;;;;;6.55;4.90;;;16.20;99.90;;;;;;5089342;28;20423;-77
2022/06/17 05:27:24;;;;;;;7.78;4.70;;;16.30;99.90;;;;;;5072462;28;20064;-77
2022/06/17 05:29:50;;;;;;;6.78;5.07;;;16.30;99.90;;;;;;5072792;28;20040;-77
2022/06/17 05:32:19;;;;;;;7.13;4.97;;;16.40;99.90;;;;;;5088502;28;20510;-77
2022/06/17 05:34:45;;;;;;;7.72;4.80;;;16.40;99.90;;;;;;5089482;28;20040;-76
2022/06/17 05:37:11;;;;;;;8.73;4.78;;;16.40;99.90;;;;;;5089074;28;20565;-76
2022/06/17 05:39:37;;;;;;;8.40;5.43;;;16.50;99.90;;;;;;5090445;28;20496;-76
2022/06/17 05:42:05;;;;;;;6.60;4.70;;;16.50;99.90;;;;;;5077782;28;20047;-76
2022/06/17 05:44:31;;;;;;;5.93;5.03;;;16.60;99.90;;;;;;5089362;28;20044;-77
2022/06/17 05:46:57;;;;;;;7.60;5.07;;;16.60;99.90;;;;;;5089019;28;20040;-77
2022/06/17 05:49:23;;;;;;;8.20;5.00;;;16.60;99.90;;;;;;5071519;28;20051;-77
2022/06/17 05:51:49;;;;;;;7.25;5.18;;;16.60;99.90;;;;;;5089825;28;20036;-77
2022/06/17 05:54:15;;;;;;;11.38;5.70;;;16.70;99.90;;;;;;5092845;28;20440;-77
2022/06/17 05:56:40;;;;;;;11.25;5.18;;;16.70;99.90;;;;;;5096904;28;20076;-75
2022/06/17 05:59:06;;;;;;;12.52;5.47;;;16.80;99.90;;;;;;5080353;28;20043;-76
2022/06/17 06:01:32;;;;;;;10.48;4.95;;;16.80;99.90;;;;;;5104013;28;20036;-76
2022/06/17 06:03:58;;;;;;;7.78;5.25;;;16.90;99.90;;;;;;5084903;28;20036;-78
2022/06/17 06:06:24;;;;;;;9.27;5.15;;;17.00;99.90;;;;;;5092321;28;20040;-77
2022/06/17 06:08:49;;;;;;;7.75;5.45;;;17.10;99.90;;;;;;5090492;28;20062;-78
2022/06/17 06:11:15;;;;;;;6.55;5.10;;;17.10;99.90;;;;;;5092233;28;20036;-78
2022/06/17 06:13:41;;;;;;;7.70;4.90;;;17.10;99.90;;;;;;5058194;28;20137;-78
2022/06/17 06:16:08;;;;;;;8.88;4.95;;;17.10;99.90;;;;;;5091560;28;20040;-78
2022/06/17 06:18:39;;;;;;;8.35;4.88;;;17.20;99.90;;;;;;5093184;28;20349;-78
2022/06/17 06:21:05;;;;;;;6.30;4.60;;;17.30;99.90;;;;;;5102531;28;20139;-77
2022/06/17 06:23:36;;;;;;;7.18;5.18;;;17.30;99.90;;;;;;5097880;28;20036;-77
2022/06/17 06:26:03;;;;;;;6.40;5.10;;;17.30;99.90;;;;;;5095041;28;20100;-78
2022/06/17 06:28:29;;;;;;;8.30;5.13;;;17.30;99.90;;;;;;5102418;28;20046;-78
2022/06/17 06:31:00;;;;;;;8.45;5.30;;;17.30;99.90;;;;;;5093887;28;20035;-78
2022/06/17 06:33:26;;;;;;;7.72;5.68;;;17.40;99.90;;;;;;5092508;28;20119;-78
2022/06/17 06:35:51;;;;;;;8.63;5.80;;;17.40;99.90;;;;;;5058932;28;20127;-77
2022/06/17 06:38:17;;;;;;;7.43;5.97;;;17.40;99.90;;;;;;5092212;28;20541;-78
2022/06/17 06:40:43;;;;;;;7.28;5.88;;;17.50;99.90;;;;;;5092992;28;20039;-79
2022/06/17 06:43:17;;;;;;;7.80;6.00;;;17.60;99.90;;;;;;5093639;28;20036;-78
2022/06/17 06:45:47;;;;;;;8.55;5.50;;;17.70;99.90;;;;;;5092934;28;20068;-79
2022/06/17 06:48:15;;;;;;;10.90;5.50;;;17.80;99.90;;;;;;5092038;28;20051;-79
2022/06/17 06:50:42;;;;;;;7.50;5.95;;;18.00;99.90;;;;;;5075862;28;20079;-77
2022/06/17 06:53:07;;;;;;;9.80;5.93;;;18.10;99.90;;;;;;5092308;28;20044;-78
2022/06/17 06:55:34;;;;;;;7.97;5.70;;;18.20;99.90;;;;;;5092243;28;20044;-77
2022/06/17 06:58:05;;;;;;;7.53;5.80;;;18.30;99.90;;;;;;5092286;28;20040;-77
2022/06/17 07:00:34;;;;;;;8.48;5.45;;;18.50;99.90;;;;;;5092114;28;20055;-78
2022/06/17 07:03:00;;;;;;;10.85;5.88;;;18.60;99.90;;;;;;5092395;28;20047;-78
2022/06/17 07:05:26;;;;;;;8.95;5.55;;;18.70;99.90;;;;;;5092539;28;20440;-79
2022/06/17 07:07:52;;;;;;;5.93;5.13;;;18.90;99.90;;;;;;5092661;28;20166;-78
2022/06/17 07:10:25;;;;;;;10.27;5.50;;;19.10;99.90;;;;;;5091537;28;20047;-78
2022/06/17 07:12:51;;;;;;;6.95;5.20;;;19.20;99.90;;;;;;5092163;28;20107;-77
2022/06/17 07:15:17;;;;;;;9.05;5.25;;;19.40;99.90;;;;;;5091995;28;20059;-78
2022/06/17 07:18:06;;;;;;;;;;;19.50;99.90;;;;;;5092791;28;20046;-78
2022/06/17 07:20:42;;;;;;;8.25;5.40;;;19.50;99.90;;;;;;5087808;28;19916;-78
2022/06/17 07:23:20;;;;;;;8.85;5.18;;;19.50;99.90;;;;;;5076396;28;20489;-78
2022/06/17 07:25:46;;;;;;;8.45;5.28;;;19.50;99.90;;;;;;5092140;28;20476;-78
2022/06/17 07:28:14;;;;;;;7.85;5.18;;;19.50;99.90;;;;;;5081492;28;20097;-77
2022/06/17 07:30:42;;;;;;;6.10;5.32;;;19.50;99.90;;;;;;5092660;28;20380;-78
2022/06/17 07:33:08;;;;;;;8.93;5.13;;;19.60;99.90;;;;;;5090035;28;20040;-78
2022/06/17 07:35:34;;;;;;;7.65;5.22;;;19.70;99.90;;;;;;5091362;28;20062;-77
2022/06/17 07:40:48;;;;;;;9.15;5.40;;;19.90;99.90;;;;;;5074596;28;20161;-78
2022/06/17 07:43:18;;;;;;;14.32;5.43;;;20.10;99.90;;;;;;5091010;28;20114;-78
2022/06/17 07:45:45;;;;;;;8.43;5.70;;;20.30;99.90;;;;;;5091595;28;20041;-77
2022/06/17 07:48:13;;;;;;;8.52;4.85;;;20.40;99.90;;;;;;5091533;28;20032;-78
2022/06/17 07:50:41;;;;;;;8.15;5.43;;;20.50;99.90;;;;;;5091469;28;20065;-79
2022/06/17 07:53:08;;;;;;;6.72;5.10;;;20.60;99.90;;;;;;5091463;28;20039;-78
2022/06/17 07:55:34;;;;;;;7.72;5.30;;;20.70;99.90;;;;;;5091040;28;20075;-79
2022/06/17 07:58:00;;;;;;;9.90;5.00;;;20.80;99.90;;;;;;5091463;28;20047;-77
2022/06/17 08:00:36;;;;;;;7.15;5.30;;;20.90;99.90;;;;;;5090864;28;20070;-78
2022/06/17 08:03:03;;;;;;;7.80;5.55;;;21.00;99.90;;;;;;5089583;28;20349;-79
2022/06/17 08:05:30;;;;;;;8.98;5.47;;;21.00;99.90;;;;;;5090687;28;20080;-78
2022/06/17 08:07:56;;;;;;;11.75;6.03;;;21.10;99.90;;;;;;5091334;28;20035;-77
2022/06/17 08:10:26;;;;;;;8.85;5.32;;;21.20;99.90;;;;;;5073684;28;20036;-77
2022/06/17 08:12:53;;;;;;;6.95;5.38;;;21.40;99.90;;;;;;5091572;28;20040;-79
2022/06/17 08:15:20;;;;;;;9.43;5.65;;;21.40;99.90;;;;;;5090317;28;20124;-77
2022/06/17 08:17:47;;;;;;;6.45;5.10;;;21.50;99.90;;;;;;5073000;28;20097;-77
2022/06/17 08:20:22;;;;;;;8.40;5.68;;;21.50;99.90;;;;;;5095781;28;20047;-77
2022/06/17 08:22:48;;;;;;;9.38;5.53;;;21.60;99.90;;;;;;5090949;28;20078;-78
2022/06/17 08:25:13;;;;;;;8.05;5.78;;;21.60;99.90;;;;;;5090881;28;20472;-77
2022/06/17 08:27:45;;;;;;;7.63;5.93;;;21.70;99.90;;;;;;5073619;28;20075;-78
2022/06/17 08:30:12;;;;;;;8.00;5.25;;;22.10;99.90;;;;;;5088729;28;20032;-79
2022/06/17 08:32:46;;;;;;;7.55;5.68;;;22.30;99.90;;;;;;5090545;28;20059;-78
2022/06/17 08:35:17;;;;;;;10.27;5.75;;;22.50;99.90;;;;;;5122732;27;20119;-78
2022/06/17 08:37:44;;;;;;;8.32;5.35;;;22.70;99.90;;;;;;5090907;28;20507;-77
2022/06/17 08:40:40;;;;;;;6.78;5.28;;;22.80;99.90;;;;;;5088475;28;20507;-78
2022/06/17 08:43:31;;;;;;;9.43;5.40;;;22.90;99.90;;;;;;5095703;28;20044;-78
2022/06/17 08:46:09;;;;;;;8.50;5.00;;;23.00;99.90;;;;;;5090326;28;20036;-77
2022/06/17 08:48:40;;;;;;;10.10;5.55;;;23.20;99.90;;;;;;5073342;28;20043;-78
2022/06/17 08:51:19;;;;;;;9.35;5.43;;;23.20;99.90;;;;;;5090585;28;20039;-78
2022/06/17 08:54:06;;;;;;;7.18;5.38;;;23.20;99.90;;;;;;5089392;28;20036;-79
2022/06/17 08:57:00;;;;;;;8.98;5.50;;;23.20;99.90;;;;;;5073365;28;20054;-79
2022/06/17 08:59:45;;;;;;;10.85;5.72;;;23.00;99.90;;;;;;5090161;28;20119;-77
2022/06/17 09:02:22;;;;;;;6.95;5.28;;;22.90;99.90;;;;;;5088385;28;20042;-78
2022/06/17 09:05:19;;;;;;;8.48;5.40;;;22.80;99.90;;;;;;5088208;28;20048;-79
2022/06/17 09:08:11;;;;;;;8.98;5.07;;;22.80;99.90;;;;;;5088653;28;20032;-78
2022/06/17 09:11:00;;;;;;;7.75;4.30;;;22.90;99.90;;;;;;5087555;28;20040;-78
2022/06/17 09:13:38;;;;;;;7.07;5.03;;;22.90;99.90;;;;;;5089080;28;20488;-77
2022/06/17 09:16:27;;;;;;;8.25;4.45;;;22.90;99.90;;;;;;5072331;28;20074;-78
2022/06/17 09:19:02;;;;;;;6.40;4.60;;;22.90;99.90;;;;;;5071776;28;20039;-78
2022/06/17 09:21:34;;;;;;;9.70;4.53;;;22.80;99.90;;;;;;5089314;28;20076;-77
2022/06/17 09:24:07;;;;;;;9.55;4.63;;;22.70;99.90;;;;;;5089867;28;20044;-78
2022/06/17 09:26:56;;;;;;;6.60;4.80;;;22.70;99.90;;;;;;5089467;28;20071;-78
2022/06/17 09:29:22;;;;;;;7.35;4.47;;;22.70;99.90;;;;;;5072545;28;20052;-78
2022/06/17 09:31:56;;;;;;;7.20;5.20;;;22.70;99.90;;;;;;5089573;28;20464;-78
2022/06/17 09:34:36;;;;;;;7.13;4.70;;;22.90;99.90;;;;;;5089207;28;20039;-78
2022/06/17 09:37:14;;;;;;;6.60;4.45;;;23.00;99.90;;;;;;5068673;28;20094;-78
2022/06/17 09:39:50;;;;;;;11.52;4.90;;;23.30;99.90;;;;;;5089630;28;20086;-78
2022/06/17 09:42:29;;;;;;;5.80;4.43;;;23.80;99.90;;;;;;5093379;28;20431;-77
2022/06/17 09:45:26;;;;;;;7.00;4.40;;;24.30;99.90;;;;;;5077633;28;20043;-78
2022/06/17 09:48:13;;;;;;;7.97;4.20;;;24.80;99.90;;;;;;5087341;28;20040;-78
2022/06/17 09:51:09;;;;;;;8.40;4.55;;;25.20;99.90;;;;;;5088684;28;20093;-78
2022/06/17 09:53:42;;;;;;;6.63;4.00;;;25.40;99.90;;;;;;5088577;28;20094;-78
2022/06/17 09:56:16;;;;;;;8.38;4.18;;;25.50;99.90;;;;;;5087689;28;20074;-78
2022/06/17 09:58:53;;;;;;;5.32;3.60;;;25.40;99.90;;;;;;5072894;28;20046;-77
2022/06/17 10:01:19;;;;;;;5.53;3.67;;;25.30;99.90;;;;;;5093004;28;20044;-81
2022/06/17 10:03:45;;;;;;;5.82;3.30;;;25.30;99.90;;;;;;5097148;28;20040;-82
2022/06/17 10:06:19;;;;;;;;;;;25.10;99.90;;;;;;5092375;28;20040;-84
2022/06/17 10:09:06;;;;;;;6.80;3.33;;;24.90;99.90;;;;;;5090689;28;19920;-82
2022/06/17 10:12:00;;;;;;;5.80;3.20;;;24.80;99.90;;;;;;5085967;28;20081;-82
2022/06/17 10:14:26;;;;;;;4.47;3.25;;;24.70;99.90;;;;;;5089524;28;20115;-82
2022/06/17 10:20:02;;;;;;;7.25;3.33;;;24.60;99.90;;;;;;5089834;28;19919;-80
2022/06/17 10:23:09;;;;;;;5.80;3.05;;;24.40;99.90;;;;;;5087443;28;20067;-80
2022/06/17 10:26:25;;;;;;;3.65;2.70;;;24.40;99.90;;;;;;5055091;28;20511;-83
2022/06/17 10:29:12;;;;;;;5.55;3.20;;;24.40;99.90;;;;;;4994499;28;20041;-83
2022/06/17 10:31:42;;;;;;;7.57;3.00;;;24.20;99.90;;;;;;5083369;28;20043;-85
2022/06/17 10:34:27;;;;;;;5.93;3.08;;;24.30;99.90;;;;;;5068817;28;20047;-82
2022/06/17 10:36:57;;;;;;;5.50;3.25;;;24.20;99.90;;;;;;5071451;28;20082;-81
2022/06/17 10:39:27;;;;;;;5.03;3.22;;;24.20;99.90;;;;;;5088298;28;20104;-82
2022/06/17 10:41:53;;;;;;;5.28;3.00;;;24.30;99.90;;;;;;5089409;28;20040;-83
2022/06/17 10:44:24;;;;;;;5.30;3.30;;;24.40;99.90;;;;;;5056154;28;20488;-83
2022/06/17 10:47:05;;;;;;;7.05;3.50;;;24.50;99.90;;;;;;5092347;28;20062;-83
2022/06/17 10:49:53;;;;;;;5.10;3.33;;;24.70;99.90;;;;;;5092862;28;20480;-82
2022/06/17 10:52:22;;;;;;;5.43;3.13;;;24.80;99.90;;;;;;5075472;28;20039;-81
2022/06/17 10:54:50;;;;;;;6.22;3.25;;;24.90;99.90;;;;;;5092646;28;20068;-85
2022/06/17 10:57:32;;;;;;;7.32;3.42;;;25.00;99.90;;;;;;5082793;28;20046;-82
2022/06/17 10:59:58;;;;;;;8.32;3.50;;;25.20;99.90;;;;;;5092816;28;20426;-85
2022/06/17 11:02:29;;;;;;;6.07;3.67;;;25.30;99.90;;;;;;5076254;28;20040;-81
2022/06/17 11:04:58;;;;;;;6.53;3.58;;;25.30;99.90;;;;;;5092567;28;20047;-81
2022/06/17 11:07:38;;;;;;;7.25;3.83;;;25.40;99.90;;;;;;5095736;28;20123;-81
2022/06/17 11:10:18;;;;;;;7.35;4.00;;;25.30;99.90;;;;;;5089906;28;20032;-81
2022/06/17 11:12:53;;;;;;;4.72;3.60;;;25.30;99.90;;;;;;5090458;28;20438;-81
2022/06/17 11:15:24;;;;;;;7.97;4.05;;;25.40;99.80;;;;;;5074815;28;20042;-81
2022/06/17 11:17:53;;;;;;;5.50;4.10;;;25.50;99.70;;;;;;5092722;28;20043;-82
2022/06/17 11:20:26;;;;;;;7.13;4.35;;;25.70;99.80;;;;;;5091944;28;20036;-82
2022/06/17 11:22:58;;;;;;;8.88;4.18;;;25.90;99.80;;;;;;5101173;28;20040;-81
2022/06/17 11:25:36;;;;;;;6.45;4.43;;;26.00;99.70;;;;;;5076204;28;20056;-83
2022/06/17 11:28:31;;;;;;;6.30;4.53;;;26.20;98.70;;;;;;5098498;28;20081;-80
2022/06/17 11:31:03;;;;;;;6.50;3.80;;;26.40;99.20;;;;;;5085110;28;20094;-81
2022/06/17 11:33:40;;;;;;;7.40;4.75;;;26.60;99.40;;;;;;5076527;28;20044;-80
2022/06/17 11:36:16;;;;;;;8.43;4.45;;;26.70;99.00;;;;;;5090177;28;20036;-80
2022/06/17 11:38:42;;;;;;;13.32;4.05;;;26.80;98.40;;;;;;5073217;28;20578;-82
2022/06/17 11:41:08;;;;;;;;;;;26.80;98.70;;;;;;5082601;28;20047;-82
2022/06/17 11:43:40;;;;;;;5.70;4.05;;;26.70;98.80;;;;;;5086548;28;19916;-83
2022/06/17 11:46:18;;;;;;;7.45;4.55;;;26.90;98.90;;;;;;5103181;28;20082;-83
2022/06/17 11:48:47;;;;;;;8.50;4.15;;;26.80;98.60;;;;;;5086108;28;20044;-84
2022/06/17 11:51:17;;;;;;;7.57;4.10;;;27.00;98.30;;;;;;5105861;28;20028;-83
2022/06/17 11:53:53;;;;;;;10.02;4.72;;;27.10;98.70;;;;;;5103957;28;20078;-83
2022/06/17 11:56:33;;;;;;;8.05;4.35;;;27.20;98.40;;;;;;5102818;28;20044;-83
2022/06/17 11:59:07;;;;;;;6.13;4.25;;;27.20;98.20;;;;;;5100490;28;20047;-83
2022/06/17 12:01:33;;;;;;;6.20;4.18;;;27.30;98.00;;;;;;5100226;28;20090;-84
2022/06/17 12:04:00;;;;;;;5.85;3.85;;;27.40;97.50;;;;;;5079134;28;20123;-83
2022/06/17 12:06:47;;;;;;;9.50;3.80;;;27.70;98.00;;;;;;5098258;28;20506;-84
2022/06/17 12:09:21;;;;;;;;;;;28.00;97.80;;;;;;5096403;28;20040;-84
2022/06/17 12:11:57;;;;;;;7.68;3.30;;;28.40;97.60;;;;;;5099881;28;19920;-83
2022/06/17 12:14:33;;;;;;;4.37;3.00;;;28.60;96.40;;;;;;5096421;28;20119;-83
2022/06/17 12:16:59;;;;;;;;;;;28.70;96.30;;;;;;5095913;28;20390;-83
2022/06/17 12:19:24;;;;;;;5.40;3.20;;;28.60;96.40;;;;;;5084623;28;19915;-84
2022/06/17 12:22:04;;;;;;;7.90;3.30;;;28.50;95.90;;;;;;5086017;28;20103;-83
2022/06/17 12:24:51;;;;;;;8.55;3.30;;;28.60;96.10;;;;;;5100764;28;20070;-84
2022/06/17 12:27:26;;;;;;;4.78;3.30;;;28.90;95.60;;;;;;5086484;28;20059;-84
2022/06/17 12:29:59;;;;;;;4.53;2.63;;;28.90;95.90;;;;;;5108406;28;20047;-84
2022/06/17 12:32:50;;;;;;;4.60;3.45;;;29.00;96.20;;;;;;5111042;28;20048;-83
2022/06/17 12:35:25;;;;;;;5.78;3.17;;;29.30;95.30;;;;;;5098934;28;20031;-84
2022/06/17 12:38:06;;;;;;;6.43;2.92;;;29.30;95.00;;;;;;5101314;28;20067;-84
2022/06/17 12:40:48;;;;;;;5.80;3.28;;;29.40;95.00;;;;;;5096766;28;20039;-84
2022/06/17 12:43:36;;;;;;;4.80;3.28;;;29.40;94.50;;;;;;5098953;28;20040;-84
2022/06/17 12:46:14;;;;;;;5.63;3.17;;;29.40;94.50;;;;;;5079996;28;20035;-84
2022/06/17 12:48:55;;;;;;;5.80;3.33;;;29.50;94.40;;;;;;5099459;28;20399;-84
2022/06/17 12:55:02;;;;;;;5.57;3.65;;;29.30;94.70;;;;;;5133758;27;20047;-84
2022/06/17 12:57:37;;;;;;;7.25;3.38;;;29.00;94.70;;;;;;5101502;28;20082;-84
2022/06/17 13:00:06;;;;;;;5.85;4.15;;;28.80;95.50;;;;;;5094293;28;20031;-84
2022/06/17 13:02:58;;;;;;;6.88;3.80;;;28.80;95.20;;;;;;5078580;28;20129;-85
2022/06/17 13:05:45;;;;;;;6.53;4.28;;;28.80;94.90;;;;;;5112795;28;20093;-84
2022/06/17 13:08:25;;;;;;;4.75;3.53;;;28.80;94.80;;;;;;5093450;28;20042;-84
2022/06/17 13:11:06;;;;;;;6.28;3.60;;;28.80;95.00;;;;;;5095448;28;20038;-83
2022/06/17 13:13:32;;;;;;;5.50;3.80;;;28.70;95.50;;;;;;5096928;28;20043;-84
2022/06/17 13:16:12;;;;;;;5.07;3.80;;;28.50;95.10;;;;;;5078056;28;20032;-83
2022/06/17 13:19:16;;;;;;;5.80;3.83;;;28.20;95.20;;;;;;5111089;28;20043;-83
2022/06/17 13:22:01;;;;;;;8.52;4.32;;;28.00;95.20;;;;;;5083609;28;20042;-85
2022/06/17 13:24:38;;;;;;;6.55;3.47;;;28.00;95.30;;;;;;5100952;28;20050;-82
2022/06/17 13:27:04;;;;;;;6.07;3.80;;;27.80;95.60;;;;;;5095672;28;20046;-85